createdAt,value
2022-10-20T00:02:25.877Z,8.20
2022-10-20T00:05:12.881Z,8.77
2022-10-20T00:07:59.816Z,8.90
2022-10-20T00:10:56.348Z,9.17
2022-10-20T00:13:45.744Z,8.33
2022-10-20T00:16:36.802Z,8.90
2022-10-20T00:19:23.813Z,8.30
2022-10-20T00:22:10.724Z,8.80
2022-10-20T00:24:57.703Z,8.47
2022-10-20T00:27:44.631Z,8.50
2022-10-20T00:30:31.861Z,8.23
2022-10-20T00:33:18.757Z,9.07
2022-10-20T00:36:08.647Z,8.63
2022-10-20T00:39:01.313Z,8.53
2022-10-20T00:41:48.300Z,8.77
2022-10-20T00:45:11.874Z,9.43
2022-10-20T00:48:14.852Z,9.20
2022-10-20T00:51:02.165Z,10.90
2022-10-20T00:53:51.782Z,9.63
2022-10-20T00:56:41.046Z,10.03
2022-10-20T00:59:32.563Z,11.90
2022-10-20T01:02:20.290Z,11.20
2022-10-20T01:05:08.031Z,11.60
2022-10-20T01:07:55.161Z,11.57
2022-10-20T01:11:18.423Z,13.83
2022-10-20T01:14:21.777Z,12.03
2022-10-20T01:17:08.721Z,12.50
2022-10-20T01:20:04.409Z,11.93
2022-10-20T01:22:51.370Z,12.53
2022-10-20T01:25:38.289Z,11.93
2022-10-20T01:29:13.306Z,11.43
2022-10-20T01:32:22.471Z,12.87
2022-10-20T01:35:23.125Z,11.67
2022-10-20T01:38:35.107Z,12.23
2022-10-20T01:41:33.044Z,11.67
2022-10-20T01:44:23.909Z,12.77
2022-10-20T01:47:12.273Z,12.57
2022-10-20T01:49:59.516Z,11.80
2022-10-20T01:52:46.874Z,12.20
2022-10-20T01:55:35.497Z,14.63
2022-10-20T01:58:36.514Z,14.03
2022-10-20T02:01:31.034Z,14.00
2022-10-20T02:04:27.390Z,13.47
2022-10-20T02:07:27.263Z,15.03
2022-10-20T02:10:27.799Z,12.93
2022-10-20T02:13:16.327Z,13.90
2022-10-20T02:16:10.517Z,14.03
2022-10-20T02:21:54.092Z,13.70
2022-10-20T02:24:42.913Z,14.23
2022-10-20T02:27:34.665Z,15.37
2022-10-20T02:30:22.154Z,15.90
2022-10-20T02:33:09.694Z,15.53
2022-10-20T02:35:58.840Z,15.57
2022-10-20T02:38:46.122Z,13.93
2022-10-20T02:41:33.434Z,14.23
2022-10-20T02:44:20.815Z,14.70
2022-10-20T02:47:07.754Z,15.97
2022-10-20T02:49:54.705Z,15.73
2022-10-20T02:52:42.491Z,14.67
2022-10-20T02:55:29.705Z,15.57
2022-10-20T02:58:16.799Z,15.93
2022-10-20T03:01:04.397Z,16.40
2022-10-20T03:03:51.545Z,15.47
2022-10-20T03:06:39.047Z,15.57
2022-10-20T03:09:26.141Z,16.37
2022-10-20T03:12:13.091Z,16.90
2022-10-20T03:15:00.106Z,15.77
2022-10-20T03:17:46.992Z,16.30
2022-10-20T03:20:34.372Z,16.07
2022-10-20T03:23:21.821Z,15.43
2022-10-20T03:26:11.068Z,15.73
2022-10-20T03:28:57.977Z,16.10
2022-10-20T03:31:45.009Z,16.57
2022-10-20T03:34:32.095Z,15.20
2022-10-20T03:37:19.024Z,15.10
2022-10-20T03:40:06.601Z,13.63
2022-10-20T03:42:53.487Z,14.07
2022-10-20T03:45:40.477Z,14.10
2022-10-20T03:48:27.829Z,13.47
2022-10-20T03:51:15.649Z,13.70
2022-10-20T03:54:02.648Z,12.63
2022-10-20T03:56:50.441Z,11.97
2022-10-20T03:59:37.569Z,12.27
2022-10-20T04:02:37.404Z,12.23
2022-10-20T04:05:24.661Z,12.77
2022-10-20T04:08:11.672Z,11.80
2022-10-20T04:10:59.106Z,12.13
2022-10-20T04:13:46.153Z,11.87
2022-10-20T04:16:33.079Z,12.67
2022-10-20T04:19:20.059Z,12.93
2022-10-20T04:22:07.020Z,12.67
2022-10-20T04:24:54.051Z,13.30
2022-10-20T04:27:41.803Z,12.87
2022-10-20T04:30:28.764Z,12.23
2022-10-20T04:33:16.411Z,13.07
2022-10-20T04:36:07.078Z,14.47
2022-10-20T04:38:53.957Z,13.87
2022-10-20T04:41:41.206Z,12.03
2022-10-20T04:44:28.114Z,13.00
2022-10-20T04:47:15.159Z,13.37
2022-10-20T04:50:02.155Z,14.13
2022-10-20T04:52:49.136Z,13.30
2022-10-20T04:55:36.371Z,14.13
2022-10-20T04:58:24.240Z,13.90
2022-10-20T05:01:11.402Z,14.20
2022-10-20T05:03:58.702Z,13.70
2022-10-20T05:06:45.717Z,14.70
2022-10-20T05:09:33.093Z,14.03
2022-10-20T05:12:20.035Z,13.73
2022-10-20T05:15:07.534Z,14.27
2022-10-20T05:17:54.420Z,15.33
2022-10-20T05:20:57.176Z,14.13
2022-10-20T05:23:48.426Z,13.90
2022-10-20T05:26:37.290Z,12.70
2022-10-20T05:29:24.238Z,12.80
2022-10-20T05:32:11.389Z,12.40
2022-10-20T05:34:58.305Z,13.83
2022-10-20T05:37:45.250Z,13.83
2022-10-20T05:40:32.187Z,13.70
2022-10-20T05:43:19.181Z,14.30
2022-10-20T05:46:07.370Z,14.20
2022-10-20T05:48:56.959Z,13.90
2022-10-20T05:51:45.351Z,13.27
2022-10-20T05:54:32.359Z,13.40
2022-10-20T05:57:19.313Z,13.03
2022-10-20T06:00:07.012Z,12.93
2022-10-20T06:02:54.726Z,13.40
2022-10-20T06:05:41.701Z,12.23
2022-10-20T06:08:33.066Z,13.47
2022-10-20T06:11:21.192Z,13.00
2022-10-20T06:14:09.827Z,13.10
2022-10-20T06:16:57.816Z,11.97
2022-10-20T06:19:44.806Z,12.67
2022-10-20T06:22:32.005Z,11.33
2022-10-20T06:25:19.308Z,11.93
2022-10-20T06:28:06.328Z,12.07
2022-10-20T06:30:53.282Z,11.67
2022-10-20T06:33:40.297Z,10.83
2022-10-20T06:36:27.969Z,12.23
2022-10-20T06:39:20.926Z,12.00
2022-10-20T06:42:11.067Z,11.63
2022-10-20T06:44:59.888Z,11.97
2022-10-20T06:47:46.807Z,11.47
2022-10-20T06:50:35.161Z,11.13
2022-10-20T06:53:22.107Z,11.07
2022-10-20T06:56:15.386Z,10.77
2022-10-20T06:59:03.382Z,10.07
2022-10-20T07:01:50.489Z,10.40
2022-10-20T07:04:37.470Z,10.83
2022-10-20T07:07:24.575Z,10.30
2022-10-20T07:10:11.469Z,9.50
2022-10-20T07:12:58.380Z,10.07
2022-10-20T07:15:46.550Z,9.47
2022-10-20T07:18:35.519Z,9.50
2022-10-20T07:21:30.757Z,9.37
2022-10-20T07:24:21.703Z,9.03
2022-10-20T07:27:08.618Z,8.93
2022-10-20T07:29:55.548Z,8.77
2022-10-20T07:32:42.504Z,9.20
2022-10-20T07:35:30.320Z,8.20
2022-10-20T07:38:17.276Z,7.93
2022-10-20T07:41:04.279Z,7.50
2022-10-20T07:43:52.062Z,7.83
2022-10-20T07:46:39.035Z,7.47
2022-10-20T07:52:32.962Z,6.33
2022-10-20T07:55:37.575Z,6.70
2022-10-20T07:58:25.425Z,6.63
2022-10-20T08:01:12.476Z,6.33
2022-10-20T08:03:59.396Z,6.67
2022-10-20T08:06:47.360Z,6.57
2022-10-20T08:09:34.311Z,6.80
2022-10-20T08:12:21.373Z,6.90
2022-10-20T08:15:08.758Z,6.60
2022-10-20T08:17:55.662Z,6.93
2022-10-20T08:20:43.005Z,7.03
2022-10-20T08:23:30.018Z,6.47
2022-10-20T08:26:20.670Z,6.13
2022-10-20T08:29:07.793Z,6.30
2022-10-20T08:31:54.765Z,6.20
2022-10-20T08:34:41.805Z,7.07
2022-10-20T08:37:32.111Z,6.57
2022-10-20T08:40:31.009Z,5.83
2022-10-20T08:43:20.017Z,6.53
2022-10-20T08:46:07.654Z,6.33
2022-10-20T08:48:54.930Z,6.83
2022-10-20T08:51:42.686Z,6.30
2022-10-20T08:54:33.086Z,6.97
2022-10-20T08:57:34.552Z,6.20
2022-10-20T09:00:24.109Z,6.27
2022-10-20T09:03:17.678Z,6.57
2022-10-20T09:06:16.220Z,5.97
2022-10-20T09:09:03.814Z,6.30
2022-10-20T09:11:51.844Z,7.03
2022-10-20T09:14:39.985Z,6.50
2022-10-20T09:17:27.006Z,7.47
2022-10-20T09:20:28.827Z,6.60
2022-10-20T09:23:39.300Z,6.70
2022-10-20T09:26:57.568Z,6.70
2022-10-20T09:29:45.601Z,6.93
2022-10-20T09:32:50.941Z,6.07
2022-10-20T09:35:39.977Z,7.20
2022-10-20T09:38:32.502Z,6.40
2022-10-20T09:41:24.286Z,7.03
2022-10-20T09:44:25.593Z,6.00
2022-10-20T09:47:16.091Z,6.50
2022-10-20T09:50:06.813Z,6.20
2022-10-20T09:52:54.582Z,5.77
2022-10-20T09:55:47.297Z,6.17
2022-10-20T09:58:42.136Z,5.93
2022-10-20T10:01:29.307Z,6.27
2022-10-20T10:04:31.150Z,6.60
2022-10-20T10:07:27.284Z,6.40
2022-10-20T10:10:17.204Z,6.60
2022-10-20T10:16:06.393Z,5.97
2022-10-20T10:19:02.332Z,6.23
2022-10-20T10:21:54.179Z,6.30
2022-10-20T10:24:47.204Z,6.23
2022-10-20T10:27:36.567Z,6.60
2022-10-20T10:30:40.098Z,6.00
2022-10-20T10:33:29.170Z,6.30
2022-10-20T10:36:34.713Z,5.83
2022-10-20T10:39:23.207Z,6.40
2022-10-20T10:42:32.187Z,5.90
2022-10-20T10:45:36.285Z,5.70
2022-10-20T10:49:16.874Z,6.03
2022-10-20T10:53:01.767Z,5.73
2022-10-20T10:56:01.308Z,5.90
2022-10-20T10:58:58.767Z,5.07
2022-10-20T11:02:23.408Z,5.07
2022-10-20T11:08:41.721Z,4.83
2022-10-20T11:11:49.785Z,5.30
2022-10-20T11:15:13.238Z,5.37
2022-10-20T11:18:25.807Z,4.87
2022-10-20T11:21:24.083Z,5.33
2022-10-20T11:24:23.319Z,4.40
2022-10-20T11:27:14.522Z,4.67
2022-10-20T11:30:08.769Z,5.10
2022-10-20T11:33:12.998Z,4.80
2022-10-20T11:36:12.872Z,5.13
2022-10-20T11:38:59.861Z,4.20
2022-10-20T11:41:50.713Z,4.57
2022-10-20T11:44:41.810Z,4.50
2022-10-20T11:47:39.559Z,4.80
2022-10-20T11:50:26.625Z,4.43
2022-10-20T11:53:36.036Z,4.90
2022-10-20T11:57:04.732Z,4.93
2022-10-20T12:00:22.526Z,4.40
2022-10-20T12:03:45.669Z,4.10
2022-10-20T12:06:44.473Z,4.30
2022-10-20T12:09:50.140Z,4.20
2022-10-20T12:12:58.760Z,4.00
2022-10-20T12:15:48.451Z,4.00
2022-10-20T12:18:36.750Z,4.67
2022-10-20T12:22:01.376Z,3.83
2022-10-20T12:24:51.298Z,4.43
2022-10-20T12:27:38.317Z,4.13
2022-10-20T12:30:51.715Z,3.90
2022-10-20T12:34:22.370Z,4.70
2022-10-20T12:37:19.512Z,4.63
2022-10-20T12:40:06.397Z,3.60
2022-10-20T12:42:55.870Z,4.57
2022-10-20T12:45:44.465Z,3.93
2022-10-20T12:48:35.593Z,4.37
2022-10-20T12:51:50.591Z,4.17
2022-10-20T12:54:46.305Z,5.03
2022-10-20T12:57:41.691Z,5.37
2022-10-20T13:00:28.842Z,5.07
2022-10-20T13:03:44.329Z,4.40
2022-10-20T13:06:33.322Z,4.60
2022-10-20T13:09:22.111Z,4.63
2022-10-20T13:12:26.315Z,4.40
2022-10-20T13:15:18.530Z,4.33
2022-10-20T13:18:11.710Z,4.50
2022-10-20T13:21:06.668Z,4.07
2022-10-20T13:24:04.465Z,4.23
2022-10-20T13:26:57.816Z,4.30
2022-10-20T13:29:47.000Z,3.97
2022-10-20T13:33:01.724Z,4.00
2022-10-20T13:36:20.336Z,4.03
2022-10-20T13:39:28.241Z,4.10
2022-10-20T13:42:24.410Z,3.93
2022-10-20T13:45:43.721Z,4.43
2022-10-20T13:48:39.784Z,3.73
2022-10-20T13:51:35.517Z,4.07
2022-10-20T13:54:26.578Z,4.40
2022-10-20T13:57:35.032Z,4.17
2022-10-20T14:00:29.332Z,4.00
2022-10-20T14:03:18.064Z,4.40
2022-10-20T14:06:05.105Z,4.80
2022-10-20T14:08:52.049Z,4.40
2022-10-20T14:11:44.889Z,4.33
2022-10-20T14:14:33.007Z,4.00
2022-10-20T14:17:22.198Z,4.03
2022-10-20T14:20:21.881Z,4.40
2022-10-20T14:23:10.892Z,4.20
2022-10-20T14:25:59.349Z,3.70
2022-10-20T14:28:48.833Z,3.97
2022-10-20T14:31:35.874Z,4.13
2022-10-20T14:34:33.442Z,3.70
2022-10-20T14:37:41.446Z,4.20
2022-10-20T14:40:35.088Z,4.30
2022-10-20T14:43:41.690Z,4.30
2022-10-20T14:46:32.598Z,4.37
2022-10-20T14:49:27.041Z,4.47
2022-10-20T14:52:20.343Z,5.00
2022-10-20T14:55:47.179Z,4.77
2022-10-20T14:58:54.505Z,4.33
2022-10-20T15:01:50.738Z,4.53
2022-10-20T15:04:42.455Z,4.63
2022-10-20T15:07:34.840Z,5.20
2022-10-20T15:10:25.478Z,5.93
2022-10-20T15:13:28.508Z,6.17
2022-10-20T15:16:49.585Z,5.77
2022-10-20T15:19:36.794Z,5.33
2022-10-20T15:22:23.819Z,5.17
2022-10-20T15:25:10.867Z,5.07
2022-10-20T15:27:59.429Z,6.10
2022-10-20T15:30:46.586Z,5.20
2022-10-20T15:33:33.849Z,5.33
2022-10-20T15:36:25.211Z,5.23
2022-10-20T15:39:12.352Z,4.97
2022-10-20T15:41:59.272Z,6.30
2022-10-20T15:44:46.317Z,6.27
2022-10-20T15:47:33.238Z,6.63
2022-10-20T15:50:22.872Z,6.17
2022-10-20T15:53:12.949Z,6.00
2022-10-20T15:55:59.901Z,5.90
2022-10-20T15:58:47.945Z,6.00
2022-10-20T16:01:35.495Z,6.63
2022-10-20T16:04:26.324Z,7.53
2022-10-20T16:07:13.625Z,7.87
2022-10-20T16:10:00.682Z,7.80
2022-10-20T16:12:48.429Z,6.87
2022-10-20T16:15:36.018Z,8.40
2022-10-20T16:18:25.064Z,8.03
2022-10-20T16:21:15.052Z,8.97
2022-10-20T16:24:02.252Z,8.63
2022-10-20T16:26:49.339Z,8.83
2022-10-20T16:29:36.277Z,9.53
2022-10-20T16:32:23.266Z,9.63
2022-10-20T16:35:10.435Z,10.20
2022-10-20T16:37:57.905Z,9.17
2022-10-20T16:40:44.821Z,9.60
2022-10-20T16:43:32.166Z,10.40
2022-10-20T16:46:19.089Z,10.60
2022-10-20T16:49:06.485Z,10.90
2022-10-20T16:51:53.477Z,11.50
2022-10-20T16:57:29.638Z,12.13
2022-10-20T17:00:16.671Z,11.87
2022-10-20T17:03:03.767Z,11.80
2022-10-20T17:06:03.220Z,12.53
2022-10-20T17:08:50.972Z,12.90
2022-10-20T17:11:37.959Z,12.50
2022-10-20T17:14:25.757Z,12.97
2022-10-20T17:17:13.287Z,11.93
2022-10-20T17:20:01.131Z,13.07
2022-10-20T17:22:48.085Z,13.37
2022-10-20T17:25:35.620Z,13.40
2022-10-20T17:28:22.557Z,14.53
2022-10-20T17:31:11.725Z,13.43
2022-10-20T17:33:59.532Z,14.03
2022-10-20T17:36:46.567Z,13.60
2022-10-20T17:39:33.530Z,13.17
2022-10-20T17:42:20.497Z,13.97
2022-10-20T17:45:08.025Z,14.07
2022-10-20T17:47:55.700Z,13.73
2022-10-20T17:50:44.195Z,14.63
2022-10-20T17:53:33.726Z,14.83
2022-10-20T17:56:27.693Z,14.70
2022-10-20T17:59:15.180Z,15.23
2022-10-20T18:02:02.825Z,15.07
2022-10-20T18:04:51.639Z,15.07
2022-10-20T18:07:40.022Z,14.40
2022-10-20T18:10:28.012Z,14.87
2022-10-20T18:13:15.983Z,14.47
2022-10-20T18:16:12.396Z,14.83
2022-10-20T18:19:00.794Z,15.87
2022-10-20T18:21:49.533Z,16.20
2022-10-20T18:24:37.726Z,15.63
2022-10-20T18:27:24.736Z,16.23
2022-10-20T18:30:12.518Z,15.60
2022-10-20T18:33:00.065Z,16.30
2022-10-20T18:35:47.195Z,16.23
2022-10-20T18:38:39.314Z,16.23
2022-10-20T18:41:30.281Z,17.63
2022-10-20T18:44:19.473Z,16.73
2022-10-20T18:47:06.452Z,16.93
2022-10-20T18:49:53.384Z,17.73
2022-10-20T18:52:40.326Z,17.70
2022-10-20T18:55:27.350Z,18.13
2022-10-20T18:58:14.336Z,17.33
2022-10-20T19:01:10.168Z,17.20
2022-10-20T19:03:59.042Z,18.40
2022-10-20T19:06:48.211Z,18.40
2022-10-20T19:09:35.140Z,18.27
2022-10-20T19:12:22.093Z,18.70
2022-10-20T19:15:09.302Z,17.93
2022-10-20T19:18:00.836Z,17.93
2022-10-20T19:20:55.511Z,18.10
2022-10-20T19:23:47.212Z,18.23
2022-10-20T19:26:38.888Z,18.87
2022-10-20T19:29:26.010Z,18.53
2022-10-20T19:32:12.966Z,19.57
2022-10-20T19:34:59.950Z,19.63
2022-10-20T19:37:46.899Z,20.63
2022-10-20T19:40:33.870Z,19.33
2022-10-20T19:43:20.818Z,20.57
2022-10-20T19:46:11.109Z,19.90
2022-10-20T19:48:58.196Z,21.40
2022-10-20T19:51:45.397Z,21.93
2022-10-20T19:54:32.502Z,20.97
2022-10-20T19:57:19.441Z,21.10
2022-10-20T20:00:07.535Z,21.40
2022-10-20T20:02:54.506Z,19.83
2022-10-20T20:05:41.489Z,21.23
2022-10-20T20:08:28.525Z,19.27
2022-10-20T20:11:23.957Z,20.83
2022-10-20T20:14:16.266Z,19.93
2022-10-20T20:17:04.313Z,19.47
2022-10-20T20:19:52.147Z,19.07
2022-10-20T20:22:39.067Z,19.20
2022-10-20T20:25:26.011Z,18.20
2022-10-20T20:28:13.078Z,19.13
2022-10-20T20:31:12.222Z,18.47
2022-10-20T20:33:59.224Z,19.50
2022-10-20T20:36:46.276Z,20.33
2022-10-20T20:39:33.244Z,19.07
2022-10-20T20:42:20.242Z,20.17
2022-10-20T20:45:07.611Z,18.97
2022-10-20T20:47:54.626Z,20.40
2022-10-20T20:50:41.556Z,20.53
2022-10-20T20:53:28.519Z,18.77
2022-10-20T20:56:19.584Z,19.50
2022-10-20T20:59:09.538Z,19.33
2022-10-20T21:01:56.510Z,19.47
2022-10-20T21:04:43.636Z,19.97
2022-10-20T21:07:31.804Z,19.30
2022-10-20T21:10:18.878Z,19.07
2022-10-20T21:13:05.818Z,18.80
2022-10-20T21:15:52.777Z,18.30
2022-10-20T21:18:41.420Z,18.73
2022-10-20T21:21:32.419Z,18.73
2022-10-20T21:24:19.336Z,19.53
2022-10-20T21:27:06.342Z,20.20
2022-10-20T21:29:53.300Z,18.20
2022-10-20T21:32:40.677Z,18.30
2022-10-20T21:35:27.791Z,18.50
2022-10-20T21:38:14.902Z,19.93
2022-10-20T21:41:06.907Z,19.33
2022-10-20T21:43:56.245Z,20.43
2022-10-20T21:46:50.739Z,19.87
2022-10-20T21:49:38.589Z,20.40
2022-10-20T21:52:25.514Z,19.27
2022-10-20T21:55:12.466Z,20.70
2022-10-20T21:57:59.468Z,19.37
2022-10-20T22:00:46.468Z,19.60
2022-10-20T22:06:22.877Z,20.10
2022-10-20T22:09:11.768Z,21.07
2022-10-20T22:11:59.691Z,21.03
2022-10-20T22:14:47.331Z,20.37
2022-10-20T22:17:34.591Z,21.37
2022-10-20T22:20:22.295Z,21.37
2022-10-20T22:23:09.304Z,21.33
2022-10-20T22:25:56.168Z,21.87
2022-10-20T22:28:43.170Z,21.77
2022-10-20T22:31:30.490Z,21.57
2022-10-20T22:34:18.074Z,21.97
2022-10-20T22:37:04.998Z,21.70
2022-10-20T22:39:51.955Z,20.70
2022-10-20T22:42:39.201Z,21.80
2022-10-20T22:45:26.313Z,22.17
2022-10-20T22:48:13.326Z,19.87
2022-10-20T22:51:00.565Z,21.00
2022-10-20T22:53:47.628Z,20.77
2022-10-20T22:56:35.058Z,20.70
2022-10-20T22:59:22.287Z,21.07
2022-10-20T23:02:09.384Z,20.93
2022-10-20T23:04:56.656Z,20.67
2022-10-20T23:07:43.779Z,21.17
2022-10-20T23:10:30.993Z,22.83
2022-10-20T23:13:18.406Z,20.17
2022-10-20T23:16:06.712Z,21.97
2022-10-20T23:18:56.648Z,22.03
2022-10-20T23:21:44.016Z,21.00
2022-10-20T23:24:31.174Z,20.93
2022-10-20T23:27:18.369Z,21.00
2022-10-20T23:30:05.870Z,21.97
2022-10-20T23:32:52.897Z,22.07
2022-10-20T23:35:41.869Z,21.37
2022-10-20T23:38:28.902Z,20.47
2022-10-20T23:41:16.122Z,22.73
2022-10-20T23:44:03.655Z,21.27
2022-10-20T23:46:52.221Z,21.30
2022-10-20T23:49:39.486Z,20.77
2022-10-20T23:52:26.992Z,22.70
2022-10-20T23:55:15.583Z,20.27
2022-10-20T23:58:02.837Z,20.83
